ADDS METAR Data INFO
IDs: Format: Raw Decoded Include TAF

Data at: 1417 UTC 12 Dec 2017

KHIB 121353Z AUTO 00000KT 10SM FEW008 BKN085 M19/M21 A3010 RMK AO2 SLP230 T11891206
KHIB 121351Z AUTO 00000KT 10SM SCT008 BKN090 M19/M21 A3010 RMK AO2
KHIB 121333Z AUTO 27005KT 9SM BKN009 M19/M21 A3011 RMK AO2 CIG 006V010 T11941211
KHIB 121322Z AUTO 24004KT 10SM SCT009 M20/M22 A3011 RMK AO2 T12001217
KHIB 121253Z AUTO 27003KT 10SM CLR M20/M22 A3011 RMK AO2 SLP234 I1000 T12001222
KHIB 121201Z AUTO 32004KT 7SM SCT011 M19/M22 A3011 RMK AO2 I1000 T11941217
KHIB 121153Z AUTO 32004KT 6SM BR BKN011 BKN120 M19/M21 A3011 RMK AO2 UPB17E26 SLP234 P0000 60000 70002 T11891206 11156 21189 56007
KHIB 121142Z AUTO 32007KT 10SM SCT009 BKN120 M19/M20 A3011 RMK AO2 UPB17E26 P0000 T11891200
KHIB 121053Z AUTO 34009KT 10SM OVC009 M18/M19 A3013 RMK AO2 SLP238 T11781194
KHIB 121048Z AUTO 33009KT 9SM OVC009 M18/M19 A3013 RMK AO2
KHIB 120953Z AUTO 32009KT 7SM OVC010 M18/M19 A3014 RMK AO2 SLP241 T11781194
KHIB 120853Z AUTO 32006KT 10SM BKN010 M18/M19 A3014 RMK AO2 UPB12E13 SLP240 P0000 60000 T11831194 57007
KHIB 120753Z AUTO 32013KT 9SM OVC013 M17/M19 A3015 RMK AO2 UPB04E07B30E52 SLP243 P0000 T11671189
KHIB 120653Z AUTO 34015KT 6SM BLSN BR BKN011 OVC015 M16/M18 A3015 RMK AO2 UPB32E38 SLP241 P0000 T11611183
KHIB 120623Z AUTO 33013KT 6SM BLSN BKN012 OVC018 M16/M19 A3015 RMK AO2 T11611189
KHIB 120553Z AUTO 32015KT 8SM OVC017 M16/M18 A3016 RMK AO2 UPB07E29SNE0454 SLP246 P0000 60000 T11561183 11100 21156 410501156 51007
KHIB 120513Z AUTO 33011KT 6SM UP OVC016 M15/M18 A3015 RMK AO2 UPB07SNE0454 P0000 T11501178
KHIB 120453Z AUTO 33015KT 5SM -SN BKN014 BKN020 M15/M18 A3015 RMK AO2 UPB0358E01SNE0358B01 SLP241 P0000 T11501178
KHIB 120353Z AUTO 33015G28KT 4SM -SN OVC022 M14/M17 A3015 RMK AO2 PK WND 33028/0340 UPB24E47SNB47 SLP241 P0000 T11391172
KHIB 120253Z AUTO 33021G26KT 10SM BKN023 M13/M17 A3014 RMK AO2 PK WND 34029/0221 UPB0155E03SNB16E25 SLP236 P0000 60000 T11281167 51022
KHIB 120201Z AUTO 33013KT 10SM UP FEW014 BKN023 M12/M16 A3012 RMK AO2 UPB0155 P0000 T11221156
KHIB 120153Z AUTO 33014G21KT 10SM FEW014 SCT023 M12/M16 A3012 RMK AO2 PK WND 34027/0124 UPB09E24 SLP231 P0000 T11221161
KHIB 120137Z AUTO 34016G25KT 10SM SCT019 M12/M16 A3012 RMK AO2 PK WND 34027/0124 UPB09E24 P0000 T11221161
KHIB 120107Z AUTO 34016KT 10SM SCT018 BKN024 M12/M15 A3010 RMK AO2 T11171150
KHIB 120053Z AUTO 33016KT 10SM SCT024 M11/M15 A3009 RMK AO2 PK WND 32029/0013 SLP221 T11111150
KHIB 112353Z AUTO 32022G32KT 9SM BKN025 M10/M14 A3007 RMK AO2 PK WND 32032/2350 UPB26E31SNB13E26 SLP212 P0000 60000 T11001139 11067 21100 51037
KHIB 112253Z AUTO 33017G26KT 10SM BKN026 M09/M14 A3003 RMK AO2 PK WND 33027/2240 UPB45E49SNB33E45 SLP199 P0000 T10941139
KHIB 112219Z AUTO 34009G19KT 10SM BKN025 M09/M13 A3001 RMK AO2 T10941133
KHIB 112153Z AUTO 33018G23KT 10SM SCT027 M09/M13 A3000 RMK AO2 PK WND 33031/2126 UPB15E34 SLP188 P0000 T10891133
KHIB 112053Z AUTO 34019G28KT 7SM OVC028 M08/M12 A2996 RMK AO2 PK WND 32032/1959 UPB10E11B25E28SNE10 SLP173 P0000 60000 T10781122 53022
KHIB 112016Z AUTO 35017G31KT 4SM BLSN OVC027 M08/M12 A2994 RMK AO2 PK WND 32032/1959 UPB10E11SNE10 P0000 T10781122
KHIB 112005Z AUTO 33024G32KT 2 1/2SM -SN OVC025 M07/M12 A2993 RMK AO2 PK WND 32032/1959 VIS 1V5 P0000 T10721117
KHIB 111953Z AUTO 34021G26KT 3SM -SN OVC025 M07/M11 A2992 RMK AO2 PK WND 34029/1932 UPB21E45SNE00B02E21B31E44B45 SLP160 P0000 T10721111
KHIB 111900Z AUTO 35014G25KT 5SM HZ BKN018 OVC024 M07/M09 A2989 RMK AO2 SNE00 P0000 T10671094
KHIB 111853Z AUTO 35018G25KT 2 1/2SM -SN BKN018 OVC022 M07/M09 A2989 RMK AO2 PK WND 34031/1756 UPB1757E28SNB28 SLP149 P0000 T10671094
KHIB 111849Z AUTO 34018G26KT 2 1/2SM -SN OVC016 M07/M09 A2989 RMK AO2 PK WND 34031/1756 UPB1757E28SNB28 P0000
KHIB 111842Z AUTO 34020G27KT 3SM -SN OVC018 M07/M09 A2989 RMK AO2 PK WND 34031/1756 UPB1757E28SNB28 P0000 T10671094
KHIB 111811Z AUTO 34020G30KT 5SM UP BR OVC010 M07/M08 A2987 RMK AO2 PK WND 34031/1756 UPB1757 CIG 009V013 P0000 T10671083
KHIB 111753Z AUTO 34019G26KT 8SM OVC009 M07/M08 A2986 RMK AO2 PK WND 34027/1741 UPE36 SLP140 P0000 60002 T10671083 11050 21072 51044
KHIB 111653Z AUTO 35020G24KT 6SM UP BR OVC009 M06/M07 A2983 RMK AO2 UPB52 PRESRR SLP129 P0000 T10561072
KHIB 111553Z AUTO 34017G23KT 10SM BKN010 OVC014 M05/M07 A2977 RMK AO2 SLP108 T10501067
KHIB 111539Z AUTO 34011KT 10SM BKN012 OVC027 M06/M07 A2975 RMK AO2 T10561072
KHIB 111453Z AUTO 35004KT 10SM OVC016 M07/M08 A2973 RMK AO2 SNE08 SLP096 P0000 60002 T10671078 53017
KHIB 111403Z AUTO 36003KT 4SM -SN BR SCT020 BKN026 OVC070 M07/M08 A2970 RMK AO2 P0000 T10721078
KHIB 111353Z AUTO 00000KT 2 1/2SM -SN BR FEW023 BKN036 OVC070 M07/M08 A2969 RMK AO2 SLP085 P0001 T10671078
KHIB 111344Z AUTO 00000KT 2 1/2SM -SN BR FEW023 BKN030 OVC065 M07/M08 A2969 RMK AO2 P0001 T10671078
KHIB 111331Z AUTO 00000KT 1SM -SN BR BKN016 BKN024 OVC030 M07/M08 A2969 RMK AO2 P0001 T10671078
KHIB 111311Z AUTO 00000KT 3/4SM -SN BR VV012 M07/M08 A2969 RMK AO2 P0000 T10671078
KHIB 111307Z AUTO 00000KT 1 1/4SM -SN BR OVC015 M07/M08 A2969 RMK AO2 P0000 T10721078
KHIB 111253Z AUTO 00000KT 1 1/4SM -SN BR SCT007 OVC013 M07/M08 A2968 RMK AO2 SLP082 P0001 T10721078
KHIB 111229Z AUTO 00000KT 1 3/4SM -SN BR OVC006 M07/M08 A2968 RMK AO2 P0000 T10721078
KHIB 111211Z AUTO 00000KT 6SM -SN BR OVC005 M07/M08 A2968 RMK AO2 P0000 T10721078
KHIB 111203Z AUTO 18003KT 2 1/2SM -SN BR OVC005 M07/M08 A2968 RMK AO2 CIG 004V008 P0000 T10721078
KHIB 111153Z AUTO 14004KT 3SM -SN BR OVC005 M07/M08 A2967 RMK AO2 SNB48 SLP077 P0000 60002 70002 I1001 I6002 T10721078 11072 21106 56027
KHIB 111110Z AUTO 16004KT 3SM BR OVC005 M08/M08 A2969 RMK AO2 I1001 T10781078
KHIB 111101Z AUTO 17004KT 2 1/2SM BR OVC006 M08/M08 A2969 RMK AO2 I1001 T10781083
KHIB 111053Z AUTO 14005KT 3SM BR OVC006 M08/M08 A2969 RMK AO2 SNE15 SLP083 P0000 I1001 T10781083
KHIB 111037Z AUTO 15005KT 2 1/2SM BR OVC007 M08/M08 A2969 RMK AO2 SNE15 P0000 I1001 T10781083
KHIB 111019Z AUTO 15004KT 3SM BR BKN009 OVC019 M08/M09 A2970 RMK AO2 SNE15 P0000 T10781089
KHIB 111009Z AUTO 17004KT 3SM -SN BR BKN011 OVC019 M08/M09 A2971 RMK AO2 P0000 T10781089
KHIB 111004Z AUTO 15005KT 2 1/2SM -SN BR SCT011 OVC019 M08/M09 A2971 RMK AO2 P0000 T10781089
KHIB 110953Z AUTO 14006KT 4SM -SN BR SCT011 OVC021 M08/M09 A2971 RMK AO2 SNE03B49 SLP087 P0000 T10781094
KHIB 110931Z AUTO 14007KT 9SM SCT013 OVC021 M08/M09 A2972 RMK AO2 SNE03 P0000 T10831094
KHIB 110918Z AUTO 15005KT 10SM BKN014 OVC021 M08/M09 A2974 RMK AO2 SNE03 P0000 T10831094
KHIB 110853Z AUTO 17003KT 3SM -SN BR FEW017 BKN021 OVC030 M08/M09 A2976 RMK AO2 SLP104 P0000 60002 T10831094 56019
KHIB 110848Z AUTO VRB03KT 2 1/2SM -SN BR SCT023 OVC034 M08/M09 A2976 RMK AO2 P0000
KHIB 110838Z AUTO 16005KT 1 3/4SM -SN BR OVC032 M08/M10 A2975 RMK AO2 P0000 T10831100
KHIB 110823Z AUTO 16005KT 2SM -SN BR OVC034 M09/M10 A2976 RMK AO2 P0000 T10891100
KHIB 110813Z AUTO 14007KT 1 3/4SM -SN BR OVC032 M09/M10 A2976 RMK AO2 P0000 T10891100
KHIB 110758Z AUTO 15007KT 2SM -SN BR OVC030 M09/M10 A2977 RMK AO2 P0000 T10891100
KHIB 110753Z AUTO 14006KT 1 3/4SM -SN BR OVC028 M09/M10 A2978 RMK AO2 SLP111 P0002 T10891100
KHIB 110742Z AUTO 14007KT 1 1/4SM -SN BR OVC017 M09/M10 A2978 RMK AO2 P0002 T10891100
KHIB 110735Z AUTO 15006KT 3/4SM -SN BR VV015 M09/M11 A2979 RMK AO2 P0001 T10941106
KHIB 110720Z AUTO 15005KT 1SM -SN BR VV012 M09/M11 A2980 RMK AO2 P0001 T10941106
KHIB 110701Z AUTO 15007KT 3/4SM -SN BR VV012 M09/M11 A2981 RMK AO2 P0000 T10941106
KHIB 110653Z AUTO 14008KT 1SM -SN BR VV013 M09/M11 A2981 RMK AO2 SNB11 SLP125 P0000 T10941106
KHIB 110635Z AUTO 14005KT 1 1/4SM -SN BR OVC022 M09/M11 A2983 RMK AO2 SNB11 P0000 T10941111
KHIB 110628Z AUTO 14005KT 1 3/4SM -SN BR OVC030 M10/M11 A2983 RMK AO2 SNB11 P0000 T11001111
KHIB 110553Z AUTO 13006KT 10SM BKN050 OVC075 M11/M12 A2986 RMK AO2 SLP142 I6000 T11061122 11106 21156 410671156 58020
KHIB 110453Z AUTO 00000KT 10SM BKN075 M13/M14 A2989 RMK AO2 SLP152 T11281144
KHIB 110353Z AUTO 00000KT 10SM CLR M14/M16 A2991 RMK AO2 SLP160 T11441156
KHIB 110308Z AUTO 00000KT 6SM BR FEW001 M15/M17 A2991 RMK AO2 T11501167
KHIB 110253Z AUTO 00000KT 10SM CLR M16/M17 A2993 RMK AO2 SLP167 I3000 T11561167 56021